aviador You're here:

DAAT Decoded Metar

TAMANRASSET in ALGERIA
Report Time2018-06-19 08:00:00
UTC Time2018-06-19 08:13:41
Flight Rules vfr VFR
Wind030° at 06 kt
W.Decomp.*RWY 02: 5.9 kt HW 1.0 kt RCW
RWY 08: 3.9 kt HW 4.6 kt LCW
W.Rank030° ranks 24
Current wind is above 030° avg. (5.7)
Visibility9999 m
Phenomena:N/A
Clouds:N/A
Expected CloudBase > 14,400 ft AGL from Temp-Dew spread
CeilingNone
Temp32°C (ISA +26)
Dew Point-4°C (9% RH)
Heat Index29.8°C
AAT27.2°C
QNH1020 hPa
Density Alt7,274 ft
Elevation4,518 ft
Report Wrong Elevation
Raw Report
DAAT 190800Z 03006KT CAVOK 32/M04 Q1020=

Extra information for DAAT:More info

Metar Taf Metar & Taf Last 4 Metars F.Rules Stats Wind Profile Meteogram Temp Stats Airport Information Weather charts Add Link Nearby VenuesMetar ALERT Operation Metar Decoded Social comments